Time;durP1;ratioP1;P1;durP2;ratioP2;P2;SDS_P1;SDS_P2;PMS_P1;PMS_P2;Temp;Humidity;BMP_temperature;BMP_pressure;BME280_temperature;BME280_humidity;BME280_pressure;Samples;Min_cycle;Max_cycle;Signal;HPM_P1;HPM_P2
2022/10/25 00:00:28;;;;;;;2.13;1.30;;;;;;;;;;5153782;27;20448;-74
2022/10/25 00:02:55;;;;;;;2.30;1.40;;;;;;;;;;5155037;27;20523;-72
2022/10/25 00:05:24;;;;;;;1.70;1.50;;;;;;;;;;5154128;27;20470;-72
2022/10/25 00:07:51;;;;;;;2.87;1.90;;;;;;;;;;5154430;27;20473;-72
2022/10/25 00:10:18;;;;;;;8.87;4.57;;;;;;;;;;5154742;27;20447;-72
2022/10/25 00:12:45;;;;;;;6.43;4.60;;;;;;;;;;5154420;27;20483;-72
2022/10/25 00:15:13;;;;;;;1.93;1.73;;;;;;;;;;5154067;27;20469;-73
2022/10/25 00:17:41;;;;;;;2.00;1.53;;;;;;;;;;5154524;27;20452;-74
2022/10/25 00:20:08;;;;;;;5.30;1.60;;;;;;;;;;5154569;27;20820;-74
2022/10/25 00:22:37;;;;;;;2.77;2.07;;;;;;;;;;5154285;27;20456;-74
2022/10/25 00:25:04;;;;;;;4.60;2.00;;;;;;;;;;5154030;27;20450;-74
2022/10/25 00:27:31;;;;;;;2.70;1.80;;;;;;;;;;5154258;27;20469;-74
2022/10/25 00:29:58;;;;;;;5.73;2.83;;;;;;;;;;5153757;27;20483;-74
2022/10/25 00:32:26;;;;;;;2.80;2.40;;;;;;;;;;5152763;27;20455;-74
2022/10/25 00:34:53;;;;;;;2.53;2.10;;;;;;;;;;5151777;27;20459;-74
2022/10/25 00:37:20;;;;;;;3.00;2.37;;;;;;;;;;5153250;27;20472;-74
2022/10/25 00:39:48;;;;;;;3.80;2.23;;;;;;;;;;5153682;27;20452;-72
2022/10/25 00:42:19;;;;;;;3.00;1.93;;;;;;;;;;5153025;27;20451;-72
2022/10/25 00:44:49;;;;;;;7.07;2.40;;;;;;;;;;5151648;27;20458;-73
2022/10/25 00:47:19;;;;;;;3.87;3.00;;;;;;;;;;5154261;27;21001;-72
2022/10/25 00:49:47;;;;;;;7.97;3.50;;;;;;;;;;5154084;27;21015;-72
2022/10/25 00:52:15;;;;;;;4.33;3.40;;;;;;;;;;5152635;27;20462;-73
2022/10/25 00:54:43;;;;;;;3.67;2.93;;;;;;;;;;5153337;27;20944;-72
2022/10/25 00:57:15;;;;;;;4.60;3.33;;;;;;;;;;5153960;27;20470;-72
2022/10/25 00:59:43;;;;;;;3.80;2.70;;;;;;;;;;5153918;27;20451;-72
2022/10/25 01:02:10;;;;;;;5.77;2.80;;;;;;;;;;5153955;27;20458;-72
2022/10/25 01:04:37;;;;;;;3.70;2.60;;;;;;;;;;5153658;27;20523;-72
2022/10/25 01:07:04;;;;;;;3.97;2.63;;;;;;;;;;5158111;27;20479;-72
2022/10/25 01:09:33;;;;;;;3.20;2.53;;;;;;;;;;5158020;27;20487;-72
2022/10/25 01:12:00;;;;;;;3.67;2.80;;;;;;;;;;5157987;27;20451;-72
2022/10/25 01:14:29;;;;;;;3.80;2.90;;;;;;;;;;5157351;27;20458;-72
2022/10/25 01:17:01;;;;;;;2.83;2.53;;;;;;;;;;5157956;27;20467;-72
2022/10/25 01:19:41;;;;;;;4.30;3.10;;;;;;;;;;5158010;27;20444;-73
2022/10/25 01:22:09;;;;;;;5.13;3.70;;;;;;;;;;5156486;27;20448;-72
2022/10/25 01:24:56;;;;;;;3.00;2.70;;;;;;;;;;5157247;27;20944;-72
2022/10/25 01:27:47;;;;;;;2.83;2.30;;;;;;;;;;5156144;27;20452;-72
2022/10/25 01:30:19;;;;;;;3.37;2.60;;;;;;;;;;5132206;27;20493;-72
2022/10/25 01:32:52;;;;;;;4.77;2.20;;;;;;;;;;5157675;27;20823;-72
2022/10/25 01:35:21;;;;;;;4.07;1.93;;;;;;;;;;5156107;27;20471;-72
2022/10/25 01:37:57;;;;;;;2.37;1.87;;;;;;;;;;5157746;27;20431;-72
2022/10/25 01:40:29;;;;;;;3.00;2.70;;;;;;;;;;5157656;27;20964;-72
2022/10/25 01:43:00;;;;;;;3.13;1.83;;;;;;;;;;5155649;27;20937;-72
2022/10/25 01:45:28;;;;;;;1.97;1.77;;;;;;;;;;5156721;27;20472;-72
2022/10/25 01:48:00;;;;;;;5.93;3.57;;;;;;;;;;5157554;27;20452;-72
2022/10/25 01:50:28;;;;;;;2.77;1.70;;;;;;;;;;5157328;27;20493;-72
2022/10/25 01:52:56;;;;;;;2.83;1.63;;;;;;;;;;5157211;27;20451;-72
2022/10/25 01:55:26;;;;;;;2.40;1.90;;;;;;;;;;5155016;27;20474;-73
2022/10/25 01:57:59;;;;;;;1.93;1.73;;;;;;;;;;5157237;27;20456;-72
2022/10/25 02:00:26;;;;;;;3.10;1.80;;;;;;;;;;5157401;27;20435;-72
2022/10/25 02:02:58;;;;;;;2.03;1.63;;;;;;;;;;5157235;27;20813;-72
2022/10/25 02:05:29;;;;;;;3.20;1.97;;;;;;;;;;5156396;27;20475;-72
2022/10/25 02:08:00;;;;;;;2.70;2.00;;;;;;;;;;5157492;27;20453;-72
2022/10/25 02:10:30;;;;;;;2.23;1.83;;;;;;;;;;5157025;27;20491;-72
2022/10/25 02:12:59;;;;;;;2.37;2.00;;;;;;;;;;5156907;27;20467;-72
2022/10/25 02:15:29;;;;;;;6.80;1.73;;;;;;;;;;5155770;27;20543;-72
2022/10/25 02:17:58;;;;;;;4.30;1.80;;;;;;;;;;5157202;27;20796;-72
2022/10/25 02:20:26;;;;;;;2.10;1.90;;;;;;;;;;5156875;27;20444;-72
2022/10/25 02:22:55;;;;;;;3.10;2.00;;;;;;;;;;5156892;27;20933;-72
2022/10/25 02:25:22;;;;;;;3.17;1.70;;;;;;;;;;5155949;27;20467;-74
2022/10/25 02:27:51;;;;;;;2.53;1.67;;;;;;;;;;5156846;27;20455;-72
2022/10/25 02:30:18;;;;;;;2.80;2.13;;;;;;;;;;5156562;27;20486;-72
2022/10/25 02:32:46;;;;;;;4.83;2.27;;;;;;;;;;5156453;27;20462;-72
2022/10/25 02:35:15;;;;;;;4.67;2.70;;;;;;;;;;5154886;27;20930;-72
2022/10/25 02:37:42;;;;;;;5.13;2.00;;;;;;;;;;5156420;27;20448;-72
2022/10/25 02:40:11;;;;;;;3.07;2.23;;;;;;;;;;5156511;27;20440;-72
2022/10/25 02:42:38;;;;;;;3.77;2.13;;;;;;;;;;5155142;27;20455;-72
2022/10/25 02:45:06;;;;;;;2.80;2.07;;;;;;;;;;5155445;27;20455;-72
2022/10/25 02:47:33;;;;;;;2.60;2.10;;;;;;;;;;5156218;27;20955;-72
2022/10/25 02:50:00;;;;;;;4.73;2.20;;;;;;;;;;5156300;27;20479;-72
2022/10/25 02:52:27;;;;;;;3.80;1.90;;;;;;;;;;5156097;27;20450;-72
2022/10/25 02:54:54;;;;;;;4.00;2.00;;;;;;;;;;5155613;27;20450;-72
2022/10/25 02:57:23;;;;;;;4.90;2.20;;;;;;;;;;5156240;27;20462;-72
2022/10/25 02:59:50;;;;;;;3.40;2.37;;;;;;;;;;5156119;27;20454;-72
2022/10/25 03:02:17;;;;;;;2.60;2.00;;;;;;;;;;5156156;27;20444;-72
2022/10/25 03:04:44;;;;;;;2.87;2.10;;;;;;;;;;5155150;27;20454;-72
2022/10/25 03:07:11;;;;;;;3.10;1.60;;;;;;;;;;5155915;27;20463;-73
2022/10/25 03:09:38;;;;;;;2.20;1.77;;;;;;;;;;5155710;27;21014;-74
2022/10/25 03:12:06;;;;;;;2.67;1.93;;;;;;;;;;5155576;27;20470;-74
2022/10/25 03:14:34;;;;;;;5.63;2.50;;;;;;;;;;5155079;27;20452;-72
2022/10/25 03:17:01;;;;;;;11.70;2.40;;;;;;;;;;5155867;27;20460;-72
2022/10/25 03:19:28;;;;;;;5.47;3.00;;;;;;;;;;5155543;27;20971;-72
2022/10/25 03:21:55;;;;;;;6.83;2.80;;;;;;;;;;5155645;27;20451;-72
2022/10/25 03:24:22;;;;;;;3.17;2.70;;;;;;;;;;5155039;27;20786;-72
2022/10/25 03:26:50;;;;;;;4.67;2.13;;;;;;;;;;5155394;27;20471;-72
2022/10/25 03:29:17;;;;;;;6.37;2.50;;;;;;;;;;5154904;27;20488;-72
2022/10/25 03:31:45;;;;;;;5.23;2.77;;;;;;;;;;5155255;27;20474;-72
2022/10/25 03:34:12;;;;;;;3.53;2.23;;;;;;;;;;5154596;27;20455;-72
2022/10/25 03:36:39;;;;;;;4.47;2.90;;;;;;;;;;5154259;27;20470;-72
2022/10/25 03:39:07;;;;;;;4.67;2.83;;;;;;;;;;5155642;27;20820;-72
2022/10/25 03:41:34;;;;;;;3.77;2.67;;;;;;;;;;5155101;27;20456;-72
2022/10/25 03:44:01;;;;;;;3.90;2.60;;;;;;;;;;5153162;27;20466;-72
2022/10/25 03:46:28;;;;;;;4.50;2.90;;;;;;;;;;5154996;27;20470;-72
2022/10/25 03:48:56;;;;;;;4.63;2.40;;;;;;;;;;5155041;27;20454;-72
2022/10/25 03:51:23;;;;;;;7.10;3.50;;;;;;;;;;5155133;27;20450;-72
2022/10/25 03:53:51;;;;;;;3.20;2.53;;;;;;;;;;5154195;27;20447;-72
2022/10/25 03:56:18;;;;;;;3.27;2.83;;;;;;;;;;5155041;27;20471;-72
2022/10/25 03:58:45;;;;;;;3.13;2.63;;;;;;;;;;5154917;27;20828;-72
2022/10/25 04:01:12;;;;;;;3.30;2.23;;;;;;;;;;5154761;27;20439;-72
2022/10/25 04:03:39;;;;;;;2.33;1.80;;;;;;;;;;5154305;27;20444;-72
2022/10/25 04:06:08;;;;;;;4.07;2.60;;;;;;;;;;5154756;27;20466;-72
2022/10/25 04:08:35;;;;;;;4.17;2.30;;;;;;;;;;5154698;27;20470;-72
2022/10/25 04:11:02;;;;;;;6.20;3.73;;;;;;;;;;5154689;27;21019;-72
2022/10/25 04:13:29;;;;;;;7.20;2.47;;;;;;;;;;5154050;27;20457;-72
2022/10/25 04:15:56;;;;;;;3.20;2.20;;;;;;;;;;5154308;27;20467;-72
2022/10/25 04:18:23;;;;;;;4.67;2.30;;;;;;;;;;5154553;27;20940;-72
2022/10/25 04:20:51;;;;;;;2.90;2.20;;;;;;;;;;5154543;27;20812;-72
2022/10/25 04:23:19;;;;;;;7.57;4.93;;;;;;;;;;5154434;27;20448;-72
2022/10/25 04:25:46;;;;;;;5.03;2.67;;;;;;;;;;5153980;27;20467;-72
2022/10/25 04:28:13;;;;;;;3.80;2.20;;;;;;;;;;5154293;27;20823;-72
2022/10/25 04:30:40;;;;;;;3.00;1.90;;;;;;;;;;5154374;27;20486;-72
2022/10/25 04:33:08;;;;;;;3.70;2.47;;;;;;;;;;5154398;27;20448;-72
2022/10/25 04:35:35;;;;;;;3.17;2.23;;;;;;;;;;5151868;27;20468;-72
2022/10/25 04:38:02;;;;;;;4.77;2.03;;;;;;;;;;5154459;27;20913;-72
2022/10/25 04:40:30;;;;;;;10.27;5.77;;;;;;;;;;5154103;27;20451;-73
2022/10/25 04:43:01;;;;;;;3.10;2.43;;;;;;;;;;5152887;27;20447;-74
2022/10/25 04:45:28;;;;;;;2.50;1.97;;;;;;;;;;5153575;27;20834;-72
2022/10/25 04:47:55;;;;;;;2.33;1.80;;;;;;;;;;5154103;27;20542;-72
2022/10/25 04:50:22;;;;;;;3.90;2.33;;;;;;;;;;5154368;27;20495;-72
2022/10/25 04:52:49;;;;;;;3.60;2.10;;;;;;;;;;5154021;27;20467;-72
2022/10/25 04:55:16;;;;;;;2.60;2.33;;;;;;;;;;5153313;27;20463;-72
2022/10/25 04:57:45;;;;;;;3.67;2.40;;;;;;;;;;5154027;27;20451;-71
2022/10/25 05:00:13;;;;;;;3.40;1.87;;;;;;;;;;5153965;27;20462;-72
2022/10/25 05:02:40;;;;;;;2.70;2.23;;;;;;;;;;5153870;27;20560;-72
2022/10/25 05:05:07;;;;;;;2.30;2.00;;;;;;;;;;5153514;27;20788;-71
2022/10/25 05:07:34;;;;;;;4.17;3.50;;;;;;;;;;5153786;27;20455;-72
2022/10/25 05:10:01;;;;;;;4.90;3.00;;;;;;;;;;5153928;27;21014;-72
2022/10/25 05:12:28;;;;;;;13.70;2.40;;;;;;;;;;5153539;27;20474;-72
2022/10/25 05:14:57;;;;;;;3.40;2.70;;;;;;;;;;5153134;27;20448;-72
2022/10/25 05:17:24;;;;;;;2.37;1.77;;;;;;;;;;5153983;27;20447;-72
2022/10/25 05:19:51;;;;;;;2.53;1.90;;;;;;;;;;5153888;27;20447;-72
2022/10/25 05:22:18;;;;;;;4.90;2.13;;;;;;;;;;5153654;27;20450;-72
2022/10/25 05:24:45;;;;;;;4.07;2.20;;;;;;;;;;5153111;27;20465;-72
2022/10/25 05:27:12;;;;;;;3.70;1.90;;;;;;;;;;5153584;27;20472;-72
2022/10/25 05:29:40;;;;;;;2.77;2.53;;;;;;;;;;5153551;27;20454;-72
2022/10/25 05:32:08;;;;;;;6.43;2.90;;;;;;;;;;5153811;27;20948;-72
2022/10/25 05:34:35;;;;;;;4.63;2.23;;;;;;;;;;5152680;27;20451;-72
2022/10/25 05:37:02;;;;;;;7.13;3.13;;;;;;;;;;5151472;27;20468;-72
2022/10/25 05:39:29;;;;;;;2.57;2.07;;;;;;;;;;5153641;27;20457;-72
2022/10/25 05:41:57;;;;;;;2.97;2.47;;;;;;;;;;5153584;27;20955;-72
2022/10/25 05:44:24;;;;;;;4.57;1.80;;;;;;;;;;5151597;27;20937;-72
2022/10/25 05:46:52;;;;;;;2.80;2.00;;;;;;;;;;5153602;27;20467;-73
2022/10/25 05:49:20;;;;;;;3.70;2.30;;;;;;;;;;5153682;27;20454;-71
2022/10/25 05:51:48;;;;;;;2.73;2.10;;;;;;;;;;5155737;27;20515;-71
2022/10/25 05:54:15;;;;;;;3.97;3.47;;;;;;;;;;5156882;27;20453;-71
2022/10/25 05:56:43;;;;;;;4.43;2.47;;;;;;;;;;5157050;27;20478;-71
2022/10/25 05:59:11;;;;;;;2.77;2.20;;;;;;;;;;5157459;27;20451;-71
2022/10/25 06:01:39;;;;;;;3.47;2.83;;;;;;;;;;5157187;27;20443;-71
2022/10/25 06:04:07;;;;;;;3.03;2.17;;;;;;;;;;5156771;27;20968;-71
2022/10/25 06:06:35;;;;;;;1.97;1.77;;;;;;;;;;5157036;27;20467;-71
2022/10/25 06:09:03;;;;;;;3.27;2.30;;;;;;;;;;5157177;27;20817;-71
2022/10/25 06:11:30;;;;;;;3.13;2.40;;;;;;;;;;5156828;27;20483;-71
2022/10/25 06:13:57;;;;;;;7.47;4.90;;;;;;;;;;5156367;27;20447;-71
2022/10/25 06:16:25;;;;;;;10.13;5.47;;;;;;;;;;5156775;27;20479;-71
2022/10/25 06:18:53;;;;;;;4.13;2.77;;;;;;;;;;5157262;27;20952;-71
2022/10/25 06:21:20;;;;;;;3.57;2.80;;;;;;;;;;5157221;27;20520;-71
2022/10/25 06:23:49;;;;;;;4.77;2.83;;;;;;;;;;5156194;27;20963;-71
2022/10/25 06:26:17;;;;;;;3.40;2.67;;;;;;;;;;5156761;27;20848;-72
2022/10/25 06:28:44;;;;;;;8.10;2.07;;;;;;;;;;5156602;27;20452;-73
2022/10/25 06:31:12;;;;;;;4.10;2.73;;;;;;;;;;5156611;27;20490;-73
2022/10/25 06:33:40;;;;;;;5.00;3.27;;;;;;;;;;5156071;27;20824;-73
2022/10/25 06:36:09;;;;;;;3.83;2.60;;;;;;;;;;5155051;27;20470;-73
2022/10/25 06:38:36;;;;;;;2.87;2.50;;;;;;;;;;5156549;27;20447;-73
2022/10/25 06:41:05;;;;;;;3.87;2.77;;;;;;;;;;5156635;27;20944;-73
2022/10/25 06:43:34;;;;;;;6.67;3.70;;;;;;;;;;5154428;27;20452;-73
2022/10/25 06:46:05;;;;;;;3.63;2.60;;;;;;;;;;5156409;27;20475;-73
2022/10/25 06:48:32;;;;;;;4.63;3.07;;;;;;;;;;5156294;27;20955;-73
2022/10/25 06:51:03;;;;;;;8.80;5.80;;;;;;;;;;5156020;27;20497;-73
2022/10/25 06:53:30;;;;;;;8.50;5.43;;;;;;;;;;5155635;27;20447;-73
2022/10/25 06:55:59;;;;;;;6.90;4.10;;;;;;;;;;5156026;27;20459;-73
2022/10/25 06:58:29;;;;;;;3.83;2.90;;;;;;;;;;5156182;27;20456;-73
2022/10/25 07:01:00;;;;;;;11.03;7.67;;;;;;;;;;5156185;27;20435;-74
2022/10/25 07:03:30;;;;;;;12.20;7.03;;;;;;;;;;5154685;27;20542;-73
2022/10/25 07:05:59;;;;;;;5.53;4.33;;;;;;;;;;5156105;27;20478;-73
2022/10/25 07:08:26;;;;;;;6.67;5.17;;;;;;;;;;5155794;27;20447;-73
2022/10/25 07:10:54;;;;;;;6.07;3.53;;;;;;;;;;5155484;27;20483;-72
2022/10/25 07:13:21;;;;;;;7.20;2.70;;;;;;;;;;5155781;27;20492;-72
2022/10/25 07:15:49;;;;;;;5.63;2.20;;;;;;;;;;5155167;27;20489;-73
2022/10/25 07:18:16;;;;;;;3.03;1.73;;;;;;;;;;5155789;27;20821;-73
2022/10/25 07:20:47;;;;;;;2.40;1.73;;;;;;;;;;5155758;27;20809;-73
2022/10/25 07:23:14;;;;;;;3.00;1.83;;;;;;;;;;5155719;27;20974;-73
2022/10/25 07:25:41;;;;;;;3.70;2.00;;;;;;;;;;5154943;27;20463;-72
2022/10/25 07:28:08;;;;;;;2.73;2.27;;;;;;;;;;5155555;27;20458;-72
2022/10/25 07:30:35;;;;;;;5.33;2.90;;;;;;;;;;5155418;27;20479;-72
2022/10/25 07:33:04;;;;;;;3.37;2.43;;;;;;;;;;5155539;27;20443;-73
2022/10/25 07:35:33;;;;;;;4.80;2.23;;;;;;;;;;5153662;27;20459;-73
2022/10/25 07:38:00;;;;;;;6.40;2.87;;;;;;;;;;5155478;27;20476;-73
2022/10/25 07:40:27;;;;;;;3.50;2.07;;;;;;;;;;5155407;27;20500;-73
2022/10/25 07:42:54;;;;;;;8.70;4.00;;;;;;;;;;5153686;27;20447;-73
2022/10/25 07:45:22;;;;;;;3.97;2.33;;;;;;;;;;5154461;27;20471;-73
2022/10/25 07:47:51;;;;;;;2.73;1.80;;;;;;;;;;5155163;27;20940;-73
2022/10/25 07:50:20;;;;;;;3.90;2.30;;;;;;;;;;5155065;27;20504;-73
2022/10/25 07:52:47;;;;;;;7.70;2.17;;;;;;;;;;5155199;27;20448;-73
2022/10/25 07:55:14;;;;;;;6.30;2.20;;;;;;;;;;5153656;27;20861;-73
2022/10/25 07:57:42;;;;;;;9.23;1.60;;;;;;;;;;5154823;27;20449;-73
2022/10/25 08:00:10;;;;;;;3.00;1.40;;;;;;;;;;5154887;27;20492;-73
2022/10/25 08:02:37;;;;;;;7.07;2.50;;;;;;;;;;5154791;27;20443;-73
2022/10/25 08:05:04;;;;;;;4.40;2.07;;;;;;;;;;5154503;27;20471;-73
2022/10/25 08:07:32;;;;;;;3.83;1.77;;;;;;;;;;5154764;27;20440;-73
2022/10/25 08:10:00;;;;;;;2.50;1.60;;;;;;;;;;5154691;27;20451;-73
2022/10/25 08:12:27;;;;;;;3.37;2.20;;;;;;;;;;5154447;27;20873;-73
2022/10/25 08:14:54;;;;;;;1.87;1.60;;;;;;;;;;5153872;27;20447;-73
2022/10/25 08:17:21;;;;;;;7.30;1.60;;;;;;;;;;5154683;27;20451;-73
2022/10/25 08:19:48;;;;;;;4.70;1.57;;;;;;;;;;5154481;27;20470;-73
2022/10/25 08:22:15;;;;;;;9.03;1.23;;;;;;;;;;5154647;27;20454;-73
2022/10/25 08:24:44;;;;;;;2.30;1.43;;;;;;;;;;5154111;27;20455;-73
2022/10/25 08:27:11;;;;;;;1.80;1.37;;;;;;;;;;5154568;27;20467;-73
2022/10/25 08:29:38;;;;;;;5.13;1.90;;;;;;;;;;5154357;27;20452;-73
2022/10/25 08:32:05;;;;;;;2.00;1.60;;;;;;;;;;5154164;27;20490;-73
2022/10/25 08:34:32;;;;;;;2.10;1.27;;;;;;;;;;5153823;27;20451;-73
2022/10/25 08:37:00;;;;;;;2.30;1.50;;;;;;;;;;5153603;27;20466;-73
2022/10/25 08:39:27;;;;;;;1.90;1.37;;;;;;;;;;5154297;27;20478;-73
2022/10/25 08:41:56;;;;;;;1.67;1.20;;;;;;;;;;5154431;27;20460;-73
2022/10/25 08:44:30;;;;;;;1.90;1.50;;;;;;;;;;5152714;27;20495;-73
2022/10/25 08:46:59;;;;;;;1.60;1.23;;;;;;;;;;5154171;27;20479;-73
2022/10/25 08:49:30;;;;;;;2.70;1.43;;;;;;;;;;5130627;27;20456;-73
2022/10/25 08:51:59;;;;;;;2.00;1.40;;;;;;;;;;5143576;27;20484;-73
2022/10/25 08:54:27;;;;;;;3.50;2.23;;;;;;;;;;5152173;27;20454;-73
2022/10/25 08:57:00;;;;;;;2.50;1.63;;;;;;;;;;5152701;27;21006;-73
2022/10/25 08:59:29;;;;;;;4.33;1.50;;;;;;;;;;5152317;27;20451;-73
2022/10/25 09:01:58;;;;;;;2.17;1.53;;;;;;;;;;5152547;27;20447;-73
2022/10/25 09:04:26;;;;;;;2.00;1.30;;;;;;;;;;5141007;27;20479;-72
2022/10/25 09:06:58;;;;;;;1.90;1.30;;;;;;;;;;5131880;28;20476;-73
2022/10/25 09:09:32;;;;;;;1.77;1.30;;;;;;;;;;5131811;28;20445;-72
2022/10/25 09:12:06;;;;;;;2.10;1.60;;;;;;;;;;5131774;28;21026;-73
2022/10/25 09:14:39;;;;;;;5.20;1.60;;;;;;;;;;5131172;28;20451;-73
2022/10/25 09:17:12;;;;;;;2.30;1.47;;;;;;;;;;5131747;28;20475;-72
2022/10/25 09:19:43;;;;;;;3.80;1.70;;;;;;;;;;5132066;28;20445;-72
2022/10/25 09:22:12;;;;;;;3.87;1.60;;;;;;;;;;5128002;28;20452;-73
2022/10/25 09:24:43;;;;;;;2.90;1.50;;;;;;;;;;5131136;28;20934;-73
2022/10/25 09:27:14;;;;;;;2.70;1.60;;;;;;;;;;5134490;27;20465;-73
2022/10/25 09:29:45;;;;;;;2.40;2.07;;;;;;;;;;5135474;27;20448;-73
2022/10/25 09:32:15;;;;;;;4.60;1.63;;;;;;;;;;5135744;27;20832;-73
2022/10/25 09:34:42;;;;;;;3.10;1.90;;;;;;;;;;5153024;27;20819;-73
2022/10/25 09:37:12;;;;;;;3.97;2.10;;;;;;;;;;5156113;27;20475;-73
2022/10/25 09:39:42;;;;;;;1.90;1.67;;;;;;;;;;5156499;27;20453;-73
2022/10/25 09:42:15;;;;;;;8.03;2.07;;;;;;;;;;5156489;27;20457;-73
2022/10/25 09:44:44;;;;;;;4.50;1.70;;;;;;;;;;5154332;27;20455;-73
2022/10/25 09:47:18;;;;;;;3.50;1.50;;;;;;;;;;5156102;27;20474;-73
2022/10/25 09:49:49;;;;;;;2.37;1.70;;;;;;;;;;5155720;27;20450;-73
2022/10/25 09:52:20;;;;;;;4.03;1.70;;;;;;;;;;5155779;27;20483;-73
2022/10/25 09:54:50;;;;;;;2.97;1.73;;;;;;;;;;5155760;27;20454;-73
2022/10/25 09:57:18;;;;;;;2.73;1.40;;;;;;;;;;5155365;27;21089;-73
2022/10/25 09:59:48;;;;;;;3.27;1.40;;;;;;;;;;5156023;27;20451;-73
2022/10/25 10:02:18;;;;;;;2.63;1.47;;;;;;;;;;5156126;27;20446;-75
2022/10/25 10:04:45;;;;;;;2.63;1.50;;;;;;;;;;5155058;27;20911;-73
2022/10/25 10:07:15;;;;;;;3.87;1.37;;;;;;;;;;5156027;27;20481;-74
2022/10/25 10:09:44;;;;;;;3.10;1.70;;;;;;;;;;5155742;27;20861;-73
2022/10/25 10:12:16;;;;;;;1.93;1.53;;;;;;;;;;5155130;27;20850;-74
2022/10/25 10:14:50;;;;;;;3.10;1.87;;;;;;;;;;5155359;27;21015;-73
2022/10/25 10:17:19;;;;;;;1.70;1.30;;;;;;;;;;5155736;27;20455;-73
2022/10/25 10:20:06;;;;;;;1.73;1.40;;;;;;;;;;5155312;27;20952;-73
2022/10/25 10:22:33;;;;;;;5.33;2.60;;;;;;;;;;5155114;27;20819;-73
2022/10/25 10:25:01;;;;;;;2.00;1.40;;;;;;;;;;5154861;27;20448;-73
2022/10/25 10:27:29;;;;;;;5.23;1.57;;;;;;;;;;5154733;27;20459;-74
2022/10/25 10:29:59;;;;;;;9.60;2.03;;;;;;;;;;5155922;27;20511;-74
2022/10/25 10:32:27;;;;;;;4.50;1.70;;;;;;;;;;5155319;27;20490;-73
2022/10/25 10:34:55;;;;;;;3.67;2.60;;;;;;;;;;5153391;27;20464;-74
2022/10/25 10:37:24;;;;;;;5.50;2.40;;;;;;;;;;5153943;27;20830;-75
2022/10/25 10:39:53;;;;;;;5.03;2.20;;;;;;;;;;5155271;27;20447;-74
2022/10/25 10:42:21;;;;;;;3.83;1.40;;;;;;;;;;5154746;27;20531;-73
2022/10/25 10:45:07;;;;;;;4.23;1.60;;;;;;;;;;5152984;27;20459;-73
2022/10/25 10:47:37;;;;;;;2.50;1.83;;;;;;;;;;5155520;27;20459;-77
2022/10/25 10:50:11;;;;;;;2.40;1.70;;;;;;;;;;5154588;27;20448;-74
2022/10/25 10:52:41;;;;;;;4.60;1.83;;;;;;;;;;5154695;27;20495;-74
2022/10/25 10:55:16;;;;;;;4.00;1.70;;;;;;;;;;5154636;27;20464;-74
2022/10/25 10:57:45;;;;;;;3.37;2.43;;;;;;;;;;5154684;27;20467;-74
2022/10/25 11:00:21;;;;;;;4.33;1.97;;;;;;;;;;5154937;27;20459;-74
2022/10/25 11:02:49;;;;;;;4.10;1.60;;;;;;;;;;5154655;27;20439;-74
2022/10/25 11:05:21;;;;;;;2.53;1.70;;;;;;;;;;5155226;27;20489;-74
2022/10/25 11:07:54;;;;;;;2.60;1.60;;;;;;;;;;5154614;27;20482;-74
2022/10/25 11:10:22;;;;;;;2.03;1.40;;;;;;;;;;5155274;27;20534;-74
2022/10/25 11:13:20;;;;;;;2.47;1.50;;;;;;;;;;5155754;27;20534;-74
2022/10/25 11:16:02;;;;;;;2.80;1.23;;;;;;;;;;5070626;28;20517;-74
2022/10/25 11:18:36;;;;;;;6.60;1.47;;;;;;;;;;5145061;27;20452;-75
2022/10/25 11:21:06;;;;;;;3.17;1.50;;;;;;;;;;5155874;27;20470;-74
2022/10/25 11:23:39;;;;;;;7.57;1.50;;;;;;;;;;5155325;27;20790;-74
2022/10/25 11:26:10;;;;;;;2.27;1.30;;;;;;;;;;5155575;27;20481;-74
2022/10/25 11:28:43;;;;;;;1.60;1.30;;;;;;;;;;5155776;27;20447;-74
2022/10/25 11:31:16;;;;;;;1.97;1.10;;;;;;;;;;5155778;27;20935;-76
2022/10/25 11:33:52;;;;;;;3.47;2.07;;;;;;;;;;5155325;27;20493;-74
2022/10/25 11:36:24;;;;;;;4.73;1.20;;;;;;;;;;5155745;27;21067;-74
2022/10/25 11:38:59;;;;;;;2.47;1.57;;;;;;;;;;5155571;27;20469;-74
2022/10/25 11:41:31;;;;;;;3.17;1.70;;;;;;;;;;5155540;27;20546;-73
2022/10/25 11:44:05;;;;;;;3.43;1.47;;;;;;;;;;5153145;27;20482;-73
2022/10/25 11:46:36;;;;;;;3.00;2.13;;;;;;;;;;5155371;27;20987;-75
2022/10/25 11:49:10;;;;;;;3.63;1.63;;;;;;;;;;5155085;27;20825;-73
2022/10/25 11:51:43;;;;;;;4.27;1.70;;;;;;;;;;5155219;27;20955;-73
2022/10/25 11:54:17;;;;;;;2.13;1.30;;;;;;;;;;5154712;27;20522;-73
2022/10/25 11:56:49;;;;;;;5.37;1.20;;;;;;;;;;5154910;27;20504;-73
2022/10/25 11:59:18;;;;;;;6.13;1.70;;;;;;;;;;5154981;27;20462;-73
2022/10/25 12:01:53;;;;;;;2.77;1.47;;;;;;;;;;5155024;27;20454;-73
2022/10/25 12:04:33;;;;;;;3.73;1.70;;;;;;;;;;5154707;27;20457;-73
2022/10/25 12:07:04;;;;;;;2.80;1.27;;;;;;;;;;5154575;27;20463;-73
2022/10/25 12:09:39;;;;;;;2.80;1.37;;;;;;;;;;5154640;27;20458;-73
2022/10/25 12:12:07;;;;;;;2.23;1.30;;;;;;;;;;5154161;27;20490;-73
2022/10/25 12:14:36;;;;;;;2.53;1.40;;;;;;;;;;5153178;27;20970;-73
2022/10/25 12:17:06;;;;;;;2.40;1.57;;;;;;;;;;5153846;27;20964;-73
2022/10/25 12:19:38;;;;;;;2.80;1.40;;;;;;;;;;5153864;27;20866;-73
2022/10/25 12:22:06;;;;;;;4.23;1.50;;;;;;;;;;5153871;27;20812;-73
2022/10/25 12:24:36;;;;;;;4.53;1.40;;;;;;;;;;5153236;27;20459;-73
2022/10/25 12:27:04;;;;;;;4.60;1.73;;;;;;;;;;5154048;27;20999;-73
2022/10/25 12:29:34;;;;;;;5.20;1.60;;;;;;;;;;5153473;27;20443;-73
2022/10/25 12:32:03;;;;;;;2.20;1.30;;;;;;;;;;5153636;27;20575;-73
2022/10/25 12:34:36;;;;;;;5.50;1.60;;;;;;;;;;5151455;27;20453;-73
2022/10/25 12:37:06;;;;;;;2.00;1.50;;;;;;;;;;5152036;27;20477;-73
2022/10/25 12:39:36;;;;;;;1.80;1.30;;;;;;;;;;5151205;27;20470;-73
2022/10/25 12:42:06;;;;;;;6.00;1.77;;;;;;;;;;5153316;27;20447;-73
2022/10/25 12:44:41;;;;;;;3.40;1.30;;;;;;;;;;5149756;27;20459;-73
2022/10/25 12:47:20;;;;;;;4.73;1.40;;;;;;;;;;5153276;27;20485;-73
2022/10/25 12:49:57;;;;;;;3.03;1.33;;;;;;;;;;5153646;27;20451;-73
2022/10/25 12:52:34;;;;;;;2.70;1.27;;;;;;;;;;5153418;27;20479;-73
2022/10/25 12:55:25;;;;;;;2.53;1.47;;;;;;;;;;5152814;27;21258;-73
2022/10/25 12:57:57;;;;;;;2.37;1.20;;;;;;;;;;5153450;27;20450;-73
2022/10/25 13:00:24;;;;;;;3.93;1.50;;;;;;;;;;5152066;27;20958;-73
2022/10/25 13:03:09;;;;;;;3.73;2.07;;;;;;;;;;5152899;27;20447;-73
2022/10/25 13:05:51;;;;;;;2.00;1.47;;;;;;;;;;5152642;27;20991;-73
2022/10/25 13:08:21;;;;;;;3.33;3.03;;;;;;;;;;5150119;27;20451;-73
2022/10/25 13:10:57;;;;;;;2.10;1.37;;;;;;;;;;5113870;27;1098936;-73
2022/10/25 13:13:26;;;;;;;2.37;1.37;;;;;;;;;;5153701;27;20486;-73
2022/10/25 13:15:54;;;;;;;2.50;1.63;;;;;;;;;;5153719;27;20471;-73
2022/10/25 13:18:38;;;;;;;2.60;1.40;;;;;;;;;;5153914;27;20456;-73
2022/10/25 13:21:06;;;;;;;5.17;1.13;;;;;;;;;;5153969;27;20520;-73
2022/10/25 13:23:58;;;;;;;4.60;1.50;;;;;;;;;;5153153;27;20451;-74
2022/10/25 13:26:40;;;;;;;4.00;1.30;;;;;;;;;;5133599;27;20482;-73
2022/10/25 13:29:22;;;;;;;1.70;1.07;;;;;;;;;;5151306;27;20448;-73
2022/10/25 13:32:05;;;;;;;3.47;1.40;;;;;;;;;;5152796;27;20447;-73
2022/10/25 13:34:36;;;;;;;2.10;1.30;;;;;;;;;;5153346;27;20443;-73
2022/10/25 13:37:04;;;;;;;3.13;1.60;;;;;;;;;;5153686;27;20464;-73
2022/10/25 13:39:33;;;;;;;9.00;5.40;;;;;;;;;;5153641;27;20469;-73
2022/10/25 13:42:02;;;;;;;4.83;2.67;;;;;;;;;;5153556;27;20554;-73
2022/10/25 13:44:29;;;;;;;3.40;1.90;;;;;;;;;;5151253;27;20446;-74
2022/10/25 13:46:58;;;;;;;3.30;1.80;;;;;;;;;;5153511;27;20479;-73
2022/10/25 13:49:30;;;;;;;3.00;1.77;;;;;;;;;;5153458;27;20439;-73
2022/10/25 13:51:59;;;;;;;3.07;1.67;;;;;;;;;;5153529;27;20958;-73
2022/10/25 13:54:31;;;;;;;4.57;1.50;;;;;;;;;;5152841;27;20487;-73
2022/10/25 13:56:58;;;;;;;3.70;1.53;;;;;;;;;;5153231;27;20464;-74
2022/10/25 13:59:58;;;;;;;4.03;2.10;;;;;;;;;;5153332;27;20811;-73
2022/10/25 14:02:27;;;;;;;5.47;2.27;;;;;;;;;;5153501;27;21009;-73
2022/10/25 14:04:54;;;;;;;3.57;2.13;;;;;;;;;;5153059;27;20954;-73
2022/10/25 14:07:40;;;;;;;3.07;1.40;;;;;;;;;;5153551;27;20459;-73
2022/10/25 14:10:08;;;;;;;3.07;1.37;;;;;;;;;;5153521;27;20907;-73
2022/10/25 14:12:36;;;;;;;4.60;1.30;;;;;;;;;;5154933;27;21000;-73
2022/10/25 14:15:05;;;;;;;2.83;2.53;;;;;;;;;;5156835;27;20456;-73
2022/10/25 14:17:36;;;;;;;3.50;1.60;;;;;;;;;;5156734;27;20959;-73
2022/10/25 14:20:07;;;;;;;1.63;1.00;;;;;;;;;;5157088;27;20936;-73
2022/10/25 14:22:36;;;;;;;5.90;1.50;;;;;;;;;;5156910;27;20450;-73
2022/10/25 14:25:05;;;;;;;2.37;1.30;;;;;;;;;;5156347;27;20455;-73
2022/10/25 14:27:33;;;;;;;2.67;1.43;;;;;;;;;;5156763;27;20543;-74
2022/10/25 14:30:13;;;;;;;6.70;1.60;;;;;;;;;;5156832;27;20456;-73
2022/10/25 14:32:48;;;;;;;2.83;1.70;;;;;;;;;;5156661;27;20986;-74
2022/10/25 14:35:15;;;;;;;6.40;1.40;;;;;;;;;;5155762;27;20471;-73
2022/10/25 14:37:43;;;;;;;1.93;1.20;;;;;;;;;;5156493;27;20452;-73
2022/10/25 14:40:17;;;;;;;3.63;1.27;;;;;;;;;;5156679;27;20448;-73
2022/10/25 14:42:44;;;;;;;2.37;1.40;;;;;;;;;;5156385;27;20921;-74
2022/10/25 14:45:18;;;;;;;4.90;1.97;;;;;;;;;;5156262;27;20471;-73
2022/10/25 14:47:46;;;;;;;5.30;1.47;;;;;;;;;;5156279;27;20451;-73
2022/10/25 14:50:14;;;;;;;3.00;1.93;;;;;;;;;;5156504;27;20442;-73
2022/10/25 14:52:43;;;;;;;3.30;1.80;;;;;;;;;;5156273;27;20531;-73
2022/10/25 14:55:17;;;;;;;2.33;1.43;;;;;;;;;;5156126;27;20471;-74
2022/10/25 14:57:45;;;;;;;5.17;2.70;;;;;;;;;;5156236;27;20443;-73